<?xml version="1.0" encoding="UTF-8" standalone="no" ?>
<gpx xmlns="http://www.topografix.com/GPX/1/1" xmlns:xsi="http://www.w3.org/2001/XMLSchema-instance" xsi:schemaLocation="http://www.topografix.com/GPX/1/1 http://www.topografix.com/GPX/1/1/gpx.xsd" version="1.1" creator="VisuGPX - https://www.visugpx.com">
  <metadata>
    <name>MOULINET BAISSE DE PIERA CAVA 13 KM 850 M</name>
    <desc><![CDATA[MOULINET BAISSE DE PIERA CAVA 13 KM 850 M
IGN 3741 ET VALLEE DE LA BEVERA ET DES PAILLONS]]></desc>
  </metadata>
  <trk>
    <name><![CDATA[--Moulinet-- OR-4932045:BAISSE PEIRA CAVA]]></name>
    <trkseg>
      <trkpt lat="43.94171" lon="7.41296">
        <ele>810</ele>
        <time>2016-01-30T10:37:54Z</time>
      </trkpt>
      <trkpt lat="43.9427" lon="7.41369">
        <ele>829</ele>
        <time>2016-01-30T10:39:54Z</time>
      </trkpt>
      <trkpt lat="43.9441" lon="7.41359">
        <ele>872</ele>
        <time>2016-01-30T10:41:54Z</time>
      </trkpt>
      <trkpt lat="43.94506" lon="7.41384">
        <ele>910</ele>
        <time>2016-01-30T10:43:54Z</time>
      </trkpt>
      <trkpt lat="43.94548" lon="7.41462">
        <ele>901</ele>
        <time>2016-01-30T10:45:54Z</time>
      </trkpt>
      <trkpt lat="43.94562" lon="7.41393">
        <ele>921</ele>
        <time>2016-01-30T10:47:54Z</time>
      </trkpt>
      <trkpt lat="43.94573" lon="7.41314">
        <ele>941</ele>
        <time>2016-01-30T10:49:54Z</time>
      </trkpt>
      <trkpt lat="43.94593" lon="7.41234">
        <ele>960</ele>
        <time>2016-01-30T10:51:54Z</time>
      </trkpt>
      <trkpt lat="43.94611" lon="7.41185">
        <ele>967</ele>
        <time>2016-01-30T10:53:54Z</time>
      </trkpt>
      <trkpt lat="43.94654" lon="7.41005">
        <ele>1006</ele>
        <time>2016-01-30T10:55:54Z</time>
      </trkpt>
      <trkpt lat="43.94685" lon="7.40895">
        <ele>1031</ele>
        <time>2016-01-30T10:57:54Z</time>
      </trkpt>
      <trkpt lat="43.94739" lon="7.40805">
        <ele>1026</ele>
        <time>2016-01-30T10:59:54Z</time>
      </trkpt>
      <trkpt lat="43.94692" lon="7.40732">
        <ele>1075</ele>
        <time>2016-01-30T11:01:54Z</time>
      </trkpt>
      <trkpt lat="43.94682" lon="7.40631">
        <ele>1112</ele>
        <time>2016-01-30T11:03:54Z</time>
      </trkpt>
      <trkpt lat="43.94721" lon="7.40545">
        <ele>1111</ele>
        <time>2016-01-30T11:05:54Z</time>
      </trkpt>
      <trkpt lat="43.94747" lon="7.40432">
        <ele>1156</ele>
        <time>2016-01-30T11:07:54Z</time>
      </trkpt>
      <trkpt lat="43.94821" lon="7.40391">
        <ele>1116</ele>
        <time>2016-01-30T11:09:54Z</time>
      </trkpt>
      <trkpt lat="43.94852" lon="7.4026">
        <ele>1150</ele>
        <time>2016-01-30T11:11:54Z</time>
      </trkpt>
      <trkpt lat="43.94852" lon="7.40183">
        <ele>1166</ele>
        <time>2016-01-30T11:13:54Z</time>
      </trkpt>
      <trkpt lat="43.94903" lon="7.4012">
        <ele>1169</ele>
        <time>2016-01-30T11:15:54Z</time>
      </trkpt>
      <trkpt lat="43.94928" lon="7.40007">
        <ele>1191</ele>
        <time>2016-01-30T11:17:54Z</time>
      </trkpt>
      <trkpt lat="43.95044" lon="7.39957">
        <ele>1177</ele>
        <time>2016-01-30T11:19:54Z</time>
      </trkpt>
      <trkpt lat="43.95068" lon="7.39839">
        <ele>1188</ele>
        <time>2016-01-30T11:21:54Z</time>
      </trkpt>
      <trkpt lat="43.95008" lon="7.39794">
        <ele>1209</ele>
        <time>2016-01-30T11:23:54Z</time>
      </trkpt>
      <trkpt lat="43.94902" lon="7.397">
        <ele>1251</ele>
        <time>2016-01-30T11:25:54Z</time>
      </trkpt>
      <trkpt lat="43.94925" lon="7.3955">
        <ele>1252</ele>
        <time>2016-01-30T11:27:54Z</time>
      </trkpt>
      <trkpt lat="43.94946" lon="7.39427">
        <ele>1267</ele>
        <time>2016-01-30T11:29:54Z</time>
      </trkpt>
      <trkpt lat="43.9499" lon="7.39367">
        <ele>1282</ele>
        <time>2016-01-30T11:31:54Z</time>
      </trkpt>
      <trkpt lat="43.95013" lon="7.39271">
        <ele>1311</ele>
        <time>2016-01-30T11:33:54Z</time>
      </trkpt>
      <trkpt lat="43.95109" lon="7.39187">
        <ele>1339</ele>
        <time>2016-01-30T11:35:54Z</time>
      </trkpt>
      <trkpt lat="43.9515" lon="7.38998">
        <ele>1378</ele>
        <time>2016-01-30T11:37:54Z</time>
      </trkpt>
      <trkpt lat="43.95204" lon="7.38865">
        <ele>1421</ele>
        <time>2016-01-30T11:39:54Z</time>
      </trkpt>
      <trkpt lat="43.95337" lon="7.38818">
        <ele>1434</ele>
        <time>2016-01-30T11:41:54Z</time>
      </trkpt>
      <trkpt lat="43.95381" lon="7.38775">
        <ele>1441</ele>
        <time>2016-01-30T11:43:54Z</time>
      </trkpt>
      <trkpt lat="43.95401" lon="7.38657">
        <ele>1469</ele>
        <time>2016-01-30T11:45:54Z</time>
      </trkpt>
      <trkpt lat="43.95484" lon="7.38558">
        <ele>1474</ele>
        <time>2016-01-30T11:47:54Z</time>
      </trkpt>
      <trkpt lat="43.95538" lon="7.38393">
        <ele>1490</ele>
        <time>2016-01-30T11:49:54Z</time>
      </trkpt>
      <trkpt lat="43.95564" lon="7.38194">
        <ele>1511</ele>
        <time>2016-01-30T11:51:54Z</time>
      </trkpt>
      <trkpt lat="43.95655" lon="7.37973">
        <ele>1513</ele>
        <time>2016-01-30T11:53:54Z</time>
      </trkpt>
      <trkpt lat="43.95642" lon="7.37945">
        <ele>1528</ele>
        <time>2016-01-30T11:55:54Z</time>
      </trkpt>
      <trkpt lat="43.95425" lon="7.38269">
        <ele>1565</ele>
        <time>2016-01-30T11:57:54Z</time>
      </trkpt>
      <trkpt lat="43.95472" lon="7.38007">
        <ele>1584</ele>
        <time>2016-01-30T11:59:54Z</time>
      </trkpt>
      <trkpt lat="43.95478" lon="7.37932">
        <ele>1597</ele>
        <time>2016-01-30T12:01:54Z</time>
      </trkpt>
      <trkpt lat="43.95462" lon="7.37848">
        <ele>1613</ele>
        <time>2016-01-30T12:03:54Z</time>
      </trkpt>
      <trkpt lat="43.95399" lon="7.37818">
        <ele>1613</ele>
        <time>2016-01-30T12:05:54Z</time>
      </trkpt>
      <trkpt lat="43.9539" lon="7.37788">
        <ele>1614</ele>
        <time>2016-01-30T12:07:54Z</time>
      </trkpt>
      <trkpt lat="43.95401" lon="7.37741">
        <ele>1632</ele>
        <time>2016-01-30T12:09:54Z</time>
      </trkpt>
      <trkpt lat="43.95348" lon="7.37621">
        <ele>1634</ele>
        <time>2016-01-30T12:11:54Z</time>
      </trkpt>
      <trkpt lat="43.95292" lon="7.37533">
        <ele>1635</ele>
        <time>2016-01-30T12:13:54Z</time>
      </trkpt>
      <trkpt lat="43.95174" lon="7.3743">
        <ele>1634</ele>
        <time>2016-01-30T12:15:54Z</time>
      </trkpt>
      <trkpt lat="43.9509" lon="7.37374">
        <ele>1629</ele>
        <time>2016-01-30T12:17:54Z</time>
      </trkpt>
      <trkpt lat="43.95041" lon="7.37254">
        <ele>1620</ele>
        <time>2016-01-30T12:19:54Z</time>
      </trkpt>
      <trkpt lat="43.95017" lon="7.37159">
        <ele>1617</ele>
        <time>2016-01-30T12:21:54Z</time>
      </trkpt>
      <trkpt lat="43.9499" lon="7.37084">
        <ele>1613</ele>
        <time>2016-01-30T12:23:54Z</time>
      </trkpt>
      <trkpt lat="43.9495" lon="7.37065">
        <ele>1599</ele>
        <time>2016-01-30T12:25:54Z</time>
      </trkpt>
      <trkpt lat="43.94855" lon="7.36964">
        <ele>1578</ele>
        <time>2016-01-30T12:27:54Z</time>
      </trkpt>
      <trkpt lat="43.94756" lon="7.36874">
        <ele>1563</ele>
        <time>2016-01-30T12:29:54Z</time>
      </trkpt>
      <trkpt lat="43.9459" lon="7.36807">
        <ele>1549</ele>
        <time>2016-01-30T12:31:54Z</time>
      </trkpt>
      <trkpt lat="43.94438" lon="7.36745">
        <ele>1521</ele>
        <time>2016-01-30T12:33:54Z</time>
      </trkpt>
      <trkpt lat="43.94347" lon="7.36803">
        <ele>1516</ele>
        <time>2016-01-30T12:35:54Z</time>
      </trkpt>
      <trkpt lat="43.9431" lon="7.36825">
        <ele>1518</ele>
        <time>2016-01-30T12:37:54Z</time>
      </trkpt>
      <trkpt lat="43.94352" lon="7.36891">
        <ele>1515</ele>
        <time>2016-01-30T12:39:54Z</time>
      </trkpt>
      <trkpt lat="43.94304" lon="7.36902">
        <ele>1513</ele>
        <time>2016-01-30T12:41:54Z</time>
      </trkpt>
      <trkpt lat="43.94253" lon="7.36966">
        <ele>1508</ele>
        <time>2016-01-30T12:43:54Z</time>
      </trkpt>
      <trkpt lat="43.94179" lon="7.37091">
        <ele>1497</ele>
        <time>2016-01-30T12:45:54Z</time>
      </trkpt>
      <trkpt lat="43.94143" lon="7.37114">
        <ele>1494</ele>
        <time>2016-01-30T12:47:54Z</time>
      </trkpt>
      <trkpt lat="43.94086" lon="7.37108">
        <ele>1509</ele>
        <time>2016-01-30T12:49:54Z</time>
      </trkpt>
      <trkpt lat="43.94049" lon="7.37204">
        <ele>1503</ele>
        <time>2016-01-30T12:51:54Z</time>
      </trkpt>
      <trkpt lat="43.94041" lon="7.37348">
        <ele>1484</ele>
        <time>2016-01-30T12:53:54Z</time>
      </trkpt>
      <trkpt lat="43.94055" lon="7.37455">
        <ele>1443</ele>
        <time>2016-01-30T12:55:54Z</time>
      </trkpt>
      <trkpt lat="43.94111" lon="7.37307">
        <ele>1454</ele>
        <time>2016-01-30T12:57:54Z</time>
      </trkpt>
      <trkpt lat="43.94129" lon="7.3741">
        <ele>1430</ele>
        <time>2016-01-30T12:59:54Z</time>
      </trkpt>
      <trkpt lat="43.94149" lon="7.3735">
        <ele>1427</ele>
        <time>2016-01-30T13:01:54Z</time>
      </trkpt>
      <trkpt lat="43.94109" lon="7.37541">
        <ele>1396</ele>
        <time>2016-01-30T13:03:54Z</time>
      </trkpt>
      <trkpt lat="43.93965" lon="7.37526">
        <ele>1422</ele>
        <time>2016-01-30T13:05:54Z</time>
      </trkpt>
      <trkpt lat="43.93905" lon="7.37606">
        <ele>1410</ele>
        <time>2016-01-30T13:07:54Z</time>
      </trkpt>
      <trkpt lat="43.93894" lon="7.37726">
        <ele>1402</ele>
        <time>2016-01-30T13:09:54Z</time>
      </trkpt>
      <trkpt lat="43.93968" lon="7.37902">
        <ele>1364</ele>
        <time>2016-01-30T13:11:54Z</time>
      </trkpt>
      <trkpt lat="43.93806" lon="7.38015">
        <ele>1394</ele>
        <time>2016-01-30T13:13:54Z</time>
      </trkpt>
      <trkpt lat="43.93809" lon="7.38142">
        <ele>1376</ele>
        <time>2016-01-30T13:15:54Z</time>
      </trkpt>
      <trkpt lat="43.93843" lon="7.38249">
        <ele>1350</ele>
        <time>2016-01-30T13:17:54Z</time>
      </trkpt>
      <trkpt lat="43.93893" lon="7.38254">
        <ele>1326</ele>
        <time>2016-01-30T13:19:54Z</time>
      </trkpt>
      <trkpt lat="43.93919" lon="7.38284">
        <ele>1306</ele>
        <time>2016-01-30T13:21:54Z</time>
      </trkpt>
      <trkpt lat="43.93947" lon="7.38209">
        <ele>1299</ele>
        <time>2016-01-30T13:23:54Z</time>
      </trkpt>
      <trkpt lat="43.93965" lon="7.38284">
        <ele>1284</ele>
        <time>2016-01-30T13:25:54Z</time>
      </trkpt>
      <trkpt lat="43.93978" lon="7.382">
        <ele>1281</ele>
        <time>2016-01-30T13:27:54Z</time>
      </trkpt>
      <trkpt lat="43.93987" lon="7.38309">
        <ele>1270</ele>
        <time>2016-01-30T13:29:54Z</time>
      </trkpt>
      <trkpt lat="43.94009" lon="7.38217">
        <ele>1266</ele>
        <time>2016-01-30T13:31:54Z</time>
      </trkpt>
      <trkpt lat="43.94013" lon="7.38305">
        <ele>1258</ele>
        <time>2016-01-30T13:33:54Z</time>
      </trkpt>
      <trkpt lat="43.9404" lon="7.38267">
        <ele>1248</ele>
        <time>2016-01-30T13:35:54Z</time>
      </trkpt>
      <trkpt lat="43.94021" lon="7.38378">
        <ele>1233</ele>
        <time>2016-01-30T13:37:54Z</time>
      </trkpt>
      <trkpt lat="43.94069" lon="7.38346">
        <ele>1229</ele>
        <time>2016-01-30T13:39:54Z</time>
      </trkpt>
      <trkpt lat="43.94046" lon="7.38395">
        <ele>1220</ele>
        <time>2016-01-30T13:41:54Z</time>
      </trkpt>
      <trkpt lat="43.941" lon="7.38378">
        <ele>1206</ele>
        <time>2016-01-30T13:43:54Z</time>
      </trkpt>
      <trkpt lat="43.94106" lon="7.38309">
        <ele>1213</ele>
        <time>2016-01-30T13:45:54Z</time>
      </trkpt>
      <trkpt lat="43.941" lon="7.38219">
        <ele>1216</ele>
        <time>2016-01-30T13:47:54Z</time>
      </trkpt>
      <trkpt lat="43.94145" lon="7.38288">
        <ele>1189</ele>
        <time>2016-01-30T13:49:54Z</time>
      </trkpt>
      <trkpt lat="43.9414" lon="7.38194">
        <ele>1198</ele>
        <time>2016-01-30T13:51:54Z</time>
      </trkpt>
      <trkpt lat="43.94183" lon="7.3823">
        <ele>1171</ele>
        <time>2016-01-30T13:53:54Z</time>
      </trkpt>
      <trkpt lat="43.94226" lon="7.38267">
        <ele>1144</ele>
        <time>2016-01-30T13:55:54Z</time>
      </trkpt>
      <trkpt lat="43.94262" lon="7.38301">
        <ele>1125</ele>
        <time>2016-01-30T13:57:54Z</time>
      </trkpt>
      <trkpt lat="43.94239" lon="7.38378">
        <ele>1122</ele>
        <time>2016-01-30T13:59:54Z</time>
      </trkpt>
      <trkpt lat="43.94222" lon="7.38481">
        <ele>1108</ele>
        <time>2016-01-30T14:01:54Z</time>
      </trkpt>
      <trkpt lat="43.94168" lon="7.38582">
        <ele>1103</ele>
        <time>2016-01-30T14:03:54Z</time>
      </trkpt>
      <trkpt lat="43.94166" lon="7.38653">
        <ele>1084</ele>
        <time>2016-01-30T14:05:54Z</time>
      </trkpt>
      <trkpt lat="43.94131" lon="7.38745">
        <ele>1076</ele>
        <time>2016-01-30T14:07:54Z</time>
      </trkpt>
      <trkpt lat="43.94117" lon="7.38805">
        <ele>1069</ele>
        <time>2016-01-30T14:09:54Z</time>
      </trkpt>
      <trkpt lat="43.94067" lon="7.38794">
        <ele>1094</ele>
        <time>2016-01-30T14:11:54Z</time>
      </trkpt>
      <trkpt lat="43.9408" lon="7.38833">
        <ele>1078</ele>
        <time>2016-01-30T14:13:54Z</time>
      </trkpt>
      <trkpt lat="43.94123" lon="7.38893">
        <ele>1053</ele>
        <time>2016-01-30T14:15:54Z</time>
      </trkpt>
      <trkpt lat="43.94095" lon="7.38934">
        <ele>1058</ele>
        <time>2016-01-30T14:17:54Z</time>
      </trkpt>
      <trkpt lat="43.94074" lon="7.39007">
        <ele>1053</ele>
        <time>2016-01-30T14:19:54Z</time>
      </trkpt>
      <trkpt lat="43.9407" lon="7.39093">
        <ele>1027</ele>
        <time>2016-01-30T14:21:54Z</time>
      </trkpt>
      <trkpt lat="43.93902" lon="7.39114">
        <ele>1052</ele>
        <time>2016-01-30T14:23:54Z</time>
      </trkpt>
      <trkpt lat="43.93965" lon="7.39219">
        <ele>1012</ele>
        <time>2016-01-30T14:25:54Z</time>
      </trkpt>
      <trkpt lat="43.93922" lon="7.39277">
        <ele>1007</ele>
        <time>2016-01-30T14:27:54Z</time>
      </trkpt>
      <trkpt lat="43.93868" lon="7.39382">
        <ele>998</ele>
        <time>2016-01-30T14:29:54Z</time>
      </trkpt>
      <trkpt lat="43.93795" lon="7.39511">
        <ele>977</ele>
        <time>2016-01-30T14:31:54Z</time>
      </trkpt>
      <trkpt lat="43.93746" lon="7.39543">
        <ele>989</ele>
        <time>2016-01-30T14:33:54Z</time>
      </trkpt>
      <trkpt lat="43.93763" lon="7.39623">
        <ele>970</ele>
        <time>2016-01-30T14:35:54Z</time>
      </trkpt>
      <trkpt lat="43.93772" lon="7.39681">
        <ele>967</ele>
        <time>2016-01-30T14:37:54Z</time>
      </trkpt>
      <trkpt lat="43.9386" lon="7.39728">
        <ele>939</ele>
        <time>2016-01-30T14:39:54Z</time>
      </trkpt>
      <trkpt lat="43.93924" lon="7.39822">
        <ele>922</ele>
        <time>2016-01-30T14:41:54Z</time>
      </trkpt>
      <trkpt lat="43.9393" lon="7.39914">
        <ele>914</ele>
        <time>2016-01-30T14:43:54Z</time>
      </trkpt>
      <trkpt lat="43.93837" lon="7.39992">
        <ele>900</ele>
        <time>2016-01-30T14:45:54Z</time>
      </trkpt>
      <trkpt lat="43.938" lon="7.40045">
        <ele>898</ele>
        <time>2016-01-30T14:47:54Z</time>
      </trkpt>
      <trkpt lat="43.93758" lon="7.4009">
        <ele>886</ele>
        <time>2016-01-30T14:49:54Z</time>
      </trkpt>
      <trkpt lat="43.93738" lon="7.40202">
        <ele>882</ele>
        <time>2016-01-30T14:51:54Z</time>
      </trkpt>
      <trkpt lat="43.93774" lon="7.40314">
        <ele>871</ele>
        <time>2016-01-30T14:53:54Z</time>
      </trkpt>
      <trkpt lat="43.93851" lon="7.40442">
        <ele>867</ele>
        <time>2016-01-30T14:55:54Z</time>
      </trkpt>
      <trkpt lat="43.93896" lon="7.40502">
        <ele>866</ele>
        <time>2016-01-30T14:57:54Z</time>
      </trkpt>
      <trkpt lat="43.93907" lon="7.40588">
        <ele>856</ele>
        <time>2016-01-30T14:59:54Z</time>
      </trkpt>
      <trkpt lat="43.93945" lon="7.40653">
        <ele>855</ele>
        <time>2016-01-30T15:01:54Z</time>
      </trkpt>
      <trkpt lat="43.9399" lon="7.40666">
        <ele>869</ele>
        <time>2016-01-30T15:03:54Z</time>
      </trkpt>
      <trkpt lat="43.93973" lon="7.40738">
        <ele>848</ele>
        <time>2016-01-30T15:05:54Z</time>
      </trkpt>
      <trkpt lat="43.94006" lon="7.40807">
        <ele>845</ele>
        <time>2016-01-30T15:07:54Z</time>
      </trkpt>
      <trkpt lat="43.94021" lon="7.40893">
        <ele>827</ele>
        <time>2016-01-30T15:09:54Z</time>
      </trkpt>
      <trkpt lat="43.94092" lon="7.41015">
        <ele>816</ele>
        <time>2016-01-30T15:11:54Z</time>
      </trkpt>
      <trkpt lat="43.9414" lon="7.41041">
        <ele>822</ele>
        <time>2016-01-30T15:13:54Z</time>
      </trkpt>
      <trkpt lat="43.94121" lon="7.41114">
        <ele>805</ele>
        <time>2016-01-30T15:15:54Z</time>
      </trkpt>
      <trkpt lat="43.94155" lon="7.41204">
        <ele>810</ele>
        <time>2016-01-30T15:17:54Z</time>
      </trkpt>
      <trkpt lat="43.94168" lon="7.41277">
        <ele>810</ele>
        <time>2016-01-30T15:19:54Z</time>
      </trkpt>
    </trkseg>
  </trk>
</gpx>